sensor_id;sensor_type;location;lat;lon;timestamp;P1;durP1;ratioP1;P2;durP2;ratioP2
17361;SDS011;8798;51.938;4.348;2023-02-28T00:01:11;4.67;;;1.50;;
17361;SDS011;8798;51.938;4.348;2023-02-28T00:03:39;1.93;;;1.27;;
17361;SDS011;8798;51.938;4.348;2023-02-28T00:06:07;5.47;;;1.57;;
17361;SDS011;8798;51.938;4.348;2023-02-28T00:08:38;4.07;;;1.43;;
17361;SDS011;8798;51.938;4.348;2023-02-28T00:11:08;3.03;;;1.60;;
17361;SDS011;8798;51.938;4.348;2023-02-28T00:13:38;3.43;;;1.30;;
17361;SDS011;8798;51.938;4.348;2023-02-28T00:16:07;2.67;;;1.20;;
17361;SDS011;8798;51.938;4.348;2023-02-28T00:18:37;1.73;;;1.13;;
17361;SDS011;8798;51.938;4.348;2023-02-28T00:21:05;2.93;;;1.37;;
17361;SDS011;8798;51.938;4.348;2023-02-28T00:23:34;2.53;;;1.20;;
17361;SDS011;8798;51.938;4.348;2023-02-28T00:26:04;1.87;;;1.10;;
17361;SDS011;8798;51.938;4.348;2023-02-28T00:28:31;2.00;;;1.07;;
17361;SDS011;8798;51.938;4.348;2023-02-28T00:30:59;2.43;;;1.00;;
17361;SDS011;8798;51.938;4.348;2023-02-28T00:33:27;1.87;;;1.10;;
17361;SDS011;8798;51.938;4.348;2023-02-28T00:36:05;2.00;;;1.20;;
17361;SDS011;8798;51.938;4.348;2023-02-28T00:38:34;2.20;;;1.10;;
17361;SDS011;8798;51.938;4.348;2023-02-28T00:41:02;2.67;;;1.30;;
17361;SDS011;8798;51.938;4.348;2023-02-28T00:43:32;3.13;;;1.40;;
17361;SDS011;8798;51.938;4.348;2023-02-28T00:46:00;2.07;;;1.20;;
17361;SDS011;8798;51.938;4.348;2023-02-28T00:48:28;2.27;;;1.20;;
17361;SDS011;8798;51.938;4.348;2023-02-28T00:50:56;2.77;;;1.40;;
17361;SDS011;8798;51.938;4.348;2023-02-28T00:53:24;2.67;;;1.10;;
17361;SDS011;8798;51.938;4.348;2023-02-28T00:55:51;3.33;;;1.40;;
17361;SDS011;8798;51.938;4.348;2023-02-28T00:58:21;2.10;;;1.17;;
17361;SDS011;8798;51.938;4.348;2023-02-28T01:00:49;4.23;;;1.40;;
17361;SDS011;8798;51.938;4.348;2023-02-28T01:03:18;1.97;;;1.30;;
17361;SDS011;8798;51.938;4.348;2023-02-28T01:05:47;3.03;;;1.23;;
17361;SDS011;8798;51.938;4.348;2023-02-28T01:08:14;3.27;;;1.20;;
17361;SDS011;8798;51.938;4.348;2023-02-28T01:10:42;4.10;;;1.30;;
17361;SDS011;8798;51.938;4.348;2023-02-28T01:13:10;2.57;;;1.53;;
17361;SDS011;8798;51.938;4.348;2023-02-28T01:15:40;1.73;;;1.20;;
17361;SDS011;8798;51.938;4.348;2023-02-28T01:18:10;1.63;;;1.00;;
17361;SDS011;8798;51.938;4.348;2023-02-28T01:20:38;3.43;;;1.47;;
17361;SDS011;8798;51.938;4.348;2023-02-28T01:23:06;2.00;;;1.17;;
17361;SDS011;8798;51.938;4.348;2023-02-28T01:25:34;1.57;;;1.20;;
17361;SDS011;8798;51.938;4.348;2023-02-28T01:28:02;3.33;;;1.33;;
17361;SDS011;8798;51.938;4.348;2023-02-28T01:30:30;2.37;;;1.30;;
17361;SDS011;8798;51.938;4.348;2023-02-28T01:32:59;2.27;;;1.30;;
17361;SDS011;8798;51.938;4.348;2023-02-28T01:35:27;3.30;;;1.50;;
17361;SDS011;8798;51.938;4.348;2023-02-28T01:37:55;3.17;;;1.60;;
17361;SDS011;8798;51.938;4.348;2023-02-28T01:40:34;2.00;;;1.73;;
17361;SDS011;8798;51.938;4.348;2023-02-28T01:43:02;2.43;;;1.50;;
17361;SDS011;8798;51.938;4.348;2023-02-28T01:45:31;2.67;;;1.43;;
17361;SDS011;8798;51.938;4.348;2023-02-28T01:48:03;1.93;;;1.40;;
17361;SDS011;8798;51.938;4.348;2023-02-28T01:50:36;3.93;;;1.50;;
17361;SDS011;8798;51.938;4.348;2023-02-28T01:53:08;5.13;;;1.50;;
17361;SDS011;8798;51.938;4.348;2023-02-28T01:55:41;2.50;;;1.20;;
17361;SDS011;8798;51.938;4.348;2023-02-28T01:58:12;2.13;;;1.50;;
17361;SDS011;8798;51.938;4.348;2023-02-28T02:00:40;2.70;;;1.47;;
17361;SDS011;8798;51.938;4.348;2023-02-28T02:03:11;2.50;;;1.23;;
17361;SDS011;8798;51.938;4.348;2023-02-28T02:05:42;4.80;;;1.60;;
17361;SDS011;8798;51.938;4.348;2023-02-28T02:08:15;3.80;;;1.40;;
17361;SDS011;8798;51.938;4.348;2023-02-28T02:10:46;3.50;;;1.53;;
17361;SDS011;8798;51.938;4.348;2023-02-28T02:13:29;1.77;;;1.13;;
17361;SDS011;8798;51.938;4.348;2023-02-28T02:16:11;3.10;;;1.30;;
17361;SDS011;8798;51.938;4.348;2023-02-28T02:18:51;1.60;;;1.20;;
17361;SDS011;8798;51.938;4.348;2023-02-28T02:21:26;2.97;;;1.40;;
17361;SDS011;8798;51.938;4.348;2023-02-28T02:27:33;2.80;;;1.20;;
17361;SDS011;8798;51.938;4.348;2023-02-28T02:33:18;2.37;;;1.37;;
17361;SDS011;8798;51.938;4.348;2023-02-28T02:36:05;3.13;;;1.27;;
17361;SDS011;8798;51.938;4.348;2023-02-28T02:38:41;1.30;;;0.97;;
17361;SDS011;8798;51.938;4.348;2023-02-28T02:41:17;2.80;;;1.23;;
17361;SDS011;8798;51.938;4.348;2023-02-28T02:43:51;2.00;;;1.10;;
17361;SDS011;8798;51.938;4.348;2023-02-28T02:46:23;2.47;;;1.30;;
17361;SDS011;8798;51.938;4.348;2023-02-28T02:48:56;4.20;;;1.33;;
17361;SDS011;8798;51.938;4.348;2023-02-28T02:51:29;2.53;;;1.10;;
17361;SDS011;8798;51.938;4.348;2023-02-28T02:54:00;4.33;;;1.60;;
17361;SDS011;8798;51.938;4.348;2023-02-28T02:56:33;2.17;;;1.43;;
17361;SDS011;8798;51.938;4.348;2023-02-28T02:59:04;5.13;;;1.60;;
17361;SDS011;8798;51.938;4.348;2023-02-28T03:01:35;2.03;;;1.40;;
17361;SDS011;8798;51.938;4.348;2023-02-28T03:04:06;3.70;;;1.37;;
17361;SDS011;8798;51.938;4.348;2023-02-28T03:06:37;2.53;;;1.40;;
17361;SDS011;8798;51.938;4.348;2023-02-28T03:09:05;4.67;;;1.70;;
17361;SDS011;8798;51.938;4.348;2023-02-28T03:11:34;2.77;;;1.63;;
17361;SDS011;8798;51.938;4.348;2023-02-28T03:14:07;2.53;;;1.20;;
17361;SDS011;8798;51.938;4.348;2023-02-28T03:16:57;4.23;;;1.50;;
17361;SDS011;8798;51.938;4.348;2023-02-28T03:19:43;2.47;;;1.40;;
17361;SDS011;8798;51.938;4.348;2023-02-28T03:22:36;2.23;;;1.33;;
17361;SDS011;8798;51.938;4.348;2023-02-28T03:25:17;3.27;;;1.47;;
17361;SDS011;8798;51.938;4.348;2023-02-28T03:28:00;3.47;;;1.47;;
17361;SDS011;8798;51.938;4.348;2023-02-28T03:30:35;4.03;;;1.67;;
17361;SDS011;8798;51.938;4.348;2023-02-28T03:33:08;3.33;;;1.70;;
17361;SDS011;8798;51.938;4.348;2023-02-28T03:35:41;2.87;;;1.47;;
17361;SDS011;8798;51.938;4.348;2023-02-28T03:38:15;3.40;;;1.57;;
17361;SDS011;8798;51.938;4.348;2023-02-28T03:40:48;3.47;;;1.83;;
17361;SDS011;8798;51.938;4.348;2023-02-28T03:43:21;2.27;;;1.60;;
17361;SDS011;8798;51.938;4.348;2023-02-28T03:45:54;3.93;;;1.93;;
17361;SDS011;8798;51.938;4.348;2023-02-28T03:48:24;2.80;;;1.70;;
17361;SDS011;8798;51.938;4.348;2023-02-28T03:50:57;1.67;;;1.40;;
17361;SDS011;8798;51.938;4.348;2023-02-28T03:53:29;3.10;;;1.60;;
17361;SDS011;8798;51.938;4.348;2023-02-28T03:56:01;3.63;;;1.90;;
17361;SDS011;8798;51.938;4.348;2023-02-28T03:58:37;2.60;;;1.80;;
17361;SDS011;8798;51.938;4.348;2023-02-28T04:01:10;3.03;;;1.73;;
17361;SDS011;8798;51.938;4.348;2023-02-28T04:03:42;4.67;;;1.50;;
17361;SDS011;8798;51.938;4.348;2023-02-28T04:06:13;4.17;;;1.80;;
17361;SDS011;8798;51.938;4.348;2023-02-28T04:08:45;3.37;;;1.83;;
17361;SDS011;8798;51.938;4.348;2023-02-28T04:11:16;3.77;;;2.10;;
17361;SDS011;8798;51.938;4.348;2023-02-28T04:13:48;3.77;;;1.80;;
17361;SDS011;8798;51.938;4.348;2023-02-28T04:16:16;4.33;;;2.00;;
17361;SDS011;8798;51.938;4.348;2023-02-28T04:19:00;5.03;;;2.20;;
17361;SDS011;8798;51.938;4.348;2023-02-28T04:21:29;7.30;;;1.70;;
17361;SDS011;8798;51.938;4.348;2023-02-28T04:24:00;5.70;;;2.23;;
17361;SDS011;8798;51.938;4.348;2023-02-28T04:26:28;6.67;;;2.13;;
17361;SDS011;8798;51.938;4.348;2023-02-28T04:28:57;3.30;;;1.80;;
17361;SDS011;8798;51.938;4.348;2023-02-28T04:31:25;3.27;;;1.63;;
17361;SDS011;8798;51.938;4.348;2023-02-28T04:33:54;2.57;;;1.70;;
17361;SDS011;8798;51.938;4.348;2023-02-28T04:36:22;4.07;;;2.10;;
17361;SDS011;8798;51.938;4.348;2023-02-28T04:38:50;2.80;;;2.00;;
17361;SDS011;8798;51.938;4.348;2023-02-28T04:41:19;5.63;;;2.10;;
17361;SDS011;8798;51.938;4.348;2023-02-28T04:43:49;4.57;;;2.07;;
17361;SDS011;8798;51.938;4.348;2023-02-28T04:46:18;6.03;;;1.93;;
17361;SDS011;8798;51.938;4.348;2023-02-28T04:48:47;3.20;;;2.07;;
17361;SDS011;8798;51.938;4.348;2023-02-28T04:51:15;6.00;;;2.30;;
17361;SDS011;8798;51.938;4.348;2023-02-28T04:53:45;2.73;;;2.00;;
17361;SDS011;8798;51.938;4.348;2023-02-28T04:56:14;4.57;;;2.30;;
17361;SDS011;8798;51.938;4.348;2023-02-28T04:58:45;4.23;;;2.23;;
17361;SDS011;8798;51.938;4.348;2023-02-28T05:01:17;6.67;;;2.17;;
17361;SDS011;8798;51.938;4.348;2023-02-28T05:03:47;5.80;;;2.23;;
17361;SDS011;8798;51.938;4.348;2023-02-28T05:06:15;5.47;;;2.40;;
17361;SDS011;8798;51.938;4.348;2023-02-28T05:08:44;3.90;;;2.03;;
17361;SDS011;8798;51.938;4.348;2023-02-28T05:11:14;4.53;;;2.27;;
17361;SDS011;8798;51.938;4.348;2023-02-28T05:13:45;7.43;;;2.60;;
17361;SDS011;8798;51.938;4.348;2023-02-28T05:16:13;6.30;;;2.37;;
17361;SDS011;8798;51.938;4.348;2023-02-28T05:18:42;5.93;;;2.50;;
17361;SDS011;8798;51.938;4.348;2023-02-28T05:21:21;5.80;;;2.40;;
17361;SDS011;8798;51.938;4.348;2023-02-28T05:23:52;4.73;;;2.60;;
17361;SDS011;8798;51.938;4.348;2023-02-28T05:26:21;5.73;;;2.37;;
17361;SDS011;8798;51.938;4.348;2023-02-28T05:28:50;5.83;;;2.43;;
17361;SDS011;8798;51.938;4.348;2023-02-28T05:31:18;3.03;;;2.17;;
17361;SDS011;8798;51.938;4.348;2023-02-28T05:33:46;4.50;;;2.40;;
17361;SDS011;8798;51.938;4.348;2023-02-28T05:36:14;4.40;;;2.80;;
17361;SDS011;8798;51.938;4.348;2023-02-28T05:38:42;3.10;;;2.43;;
17361;SDS011;8798;51.938;4.348;2023-02-28T05:41:10;4.97;;;2.30;;
17361;SDS011;8798;51.938;4.348;2023-02-28T05:43:38;4.37;;;2.17;;
17361;SDS011;8798;51.938;4.348;2023-02-28T05:46:08;4.70;;;2.43;;
17361;SDS011;8798;51.938;4.348;2023-02-28T05:48:39;7.20;;;3.07;;
17361;SDS011;8798;51.938;4.348;2023-02-28T05:51:08;6.13;;;2.70;;
17361;SDS011;8798;51.938;4.348;2023-02-28T05:53:36;5.47;;;3.03;;
17361;SDS011;8798;51.938;4.348;2023-02-28T05:56:04;5.17;;;2.77;;
17361;SDS011;8798;51.938;4.348;2023-02-28T05:58:32;6.40;;;2.90;;
17361;SDS011;8798;51.938;4.348;2023-02-28T06:01:18;5.43;;;2.90;;
17361;SDS011;8798;51.938;4.348;2023-02-28T06:03:48;6.43;;;3.60;;
17361;SDS011;8798;51.938;4.348;2023-02-28T06:06:16;6.93;;;3.63;;
17361;SDS011;8798;51.938;4.348;2023-02-28T06:08:44;4.60;;;3.37;;
17361;SDS011;8798;51.938;4.348;2023-02-28T06:11:12;8.33;;;3.60;;
17361;SDS011;8798;51.938;4.348;2023-02-28T06:13:41;5.80;;;3.50;;
17361;SDS011;8798;51.938;4.348;2023-02-28T06:16:09;8.77;;;3.77;;
17361;SDS011;8798;51.938;4.348;2023-02-28T06:18:39;7.17;;;3.40;;
17361;SDS011;8798;51.938;4.348;2023-02-28T06:21:07;10.83;;;3.80;;
17361;SDS011;8798;51.938;4.348;2023-02-28T06:23:35;5.97;;;3.10;;
17361;SDS011;8798;51.938;4.348;2023-02-28T06:26:03;7.00;;;3.60;;
17361;SDS011;8798;51.938;4.348;2023-02-28T06:28:31;5.97;;;3.23;;
17361;SDS011;8798;51.938;4.348;2023-02-28T06:30:59;7.80;;;3.53;;
17361;SDS011;8798;51.938;4.348;2023-02-28T06:33:27;8.07;;;3.50;;
17361;SDS011;8798;51.938;4.348;2023-02-28T06:35:56;3.90;;;2.87;;
17361;SDS011;8798;51.938;4.348;2023-02-28T06:38:24;6.40;;;3.30;;
17361;SDS011;8798;51.938;4.348;2023-02-28T06:40:55;3.93;;;2.63;;
17361;SDS011;8798;51.938;4.348;2023-02-28T06:43:24;4.63;;;2.77;;
17361;SDS011;8798;51.938;4.348;2023-02-28T06:45:53;4.00;;;2.20;;
17361;SDS011;8798;51.938;4.348;2023-02-28T06:48:22;3.90;;;2.30;;
17361;SDS011;8798;51.938;4.348;2023-02-28T06:50:50;5.40;;;2.60;;
17361;SDS011;8798;51.938;4.348;2023-02-28T06:53:20;4.20;;;2.40;;
17361;SDS011;8798;51.938;4.348;2023-02-28T06:55:50;4.23;;;2.57;;
17361;SDS011;8798;51.938;4.348;2023-02-28T06:58:18;3.17;;;2.00;;
17361;SDS011;8798;51.938;4.348;2023-02-28T07:00:45;4.47;;;2.33;;
17361;SDS011;8798;51.938;4.348;2023-02-28T07:03:18;2.97;;;1.90;;
17361;SDS011;8798;51.938;4.348;2023-02-28T07:05:46;2.47;;;2.17;;
17361;SDS011;8798;51.938;4.348;2023-02-28T07:08:14;3.60;;;2.27;;
17361;SDS011;8798;51.938;4.348;2023-02-28T07:10:44;3.27;;;1.73;;
17361;SDS011;8798;51.938;4.348;2023-02-28T07:13:12;5.87;;;2.37;;
17361;SDS011;8798;51.938;4.348;2023-02-28T07:15:39;4.63;;;2.00;;
17361;SDS011;8798;51.938;4.348;2023-02-28T07:18:09;3.97;;;2.10;;
17361;SDS011;8798;51.938;4.348;2023-02-28T07:20:37;3.37;;;2.00;;
17361;SDS011;8798;51.938;4.348;2023-02-28T07:23:05;2.97;;;1.73;;
17361;SDS011;8798;51.938;4.348;2023-02-28T07:25:33;4.20;;;2.30;;
17361;SDS011;8798;51.938;4.348;2023-02-28T07:28:02;4.00;;;1.77;;
17361;SDS011;8798;51.938;4.348;2023-02-28T07:30:30;4.03;;;2.03;;
17361;SDS011;8798;51.938;4.348;2023-02-28T07:32:58;3.40;;;1.97;;
17361;SDS011;8798;51.938;4.348;2023-02-28T07:35:25;3.30;;;2.10;;
17361;SDS011;8798;51.938;4.348;2023-02-28T07:37:53;7.80;;;2.57;;
17361;SDS011;8798;51.938;4.348;2023-02-28T07:40:21;3.70;;;2.43;;
17361;SDS011;8798;51.938;4.348;2023-02-28T07:42:49;4.77;;;2.83;;
17361;SDS011;8798;51.938;4.348;2023-02-28T07:45:18;5.83;;;2.47;;
17361;SDS011;8798;51.938;4.348;2023-02-28T07:47:46;3.23;;;2.20;;
17361;SDS011;8798;51.938;4.348;2023-02-28T07:50:15;4.23;;;2.60;;
17361;SDS011;8798;51.938;4.348;2023-02-28T07:52:43;3.67;;;2.30;;
17361;SDS011;8798;51.938;4.348;2023-02-28T07:55:11;6.07;;;2.10;;
17361;SDS011;8798;51.938;4.348;2023-02-28T07:57:40;6.37;;;2.50;;
17361;SDS011;8798;51.938;4.348;2023-02-28T08:00:08;4.37;;;2.20;;
17361;SDS011;8798;51.938;4.348;2023-02-28T08:02:40;3.67;;;2.43;;
17361;SDS011;8798;51.938;4.348;2023-02-28T08:05:08;5.57;;;2.17;;
17361;SDS011;8798;51.938;4.348;2023-02-28T08:07:36;3.87;;;2.73;;
17361;SDS011;8798;51.938;4.348;2023-02-28T08:10:04;3.73;;;2.33;;
17361;SDS011;8798;51.938;4.348;2023-02-28T08:12:33;4.13;;;2.23;;
17361;SDS011;8798;51.938;4.348;2023-02-28T08:15:00;3.43;;;2.27;;
17361;SDS011;8798;51.938;4.348;2023-02-28T08:17:28;4.23;;;2.40;;
17361;SDS011;8798;51.938;4.348;2023-02-28T08:19:59;4.60;;;2.47;;
17361;SDS011;8798;51.938;4.348;2023-02-28T08:22:27;5.27;;;2.60;;
17361;SDS011;8798;51.938;4.348;2023-02-28T08:24:55;3.30;;;2.37;;
17361;SDS011;8798;51.938;4.348;2023-02-28T08:27:23;4.63;;;2.67;;
17361;SDS011;8798;51.938;4.348;2023-02-28T08:29:51;3.20;;;1.87;;
17361;SDS011;8798;51.938;4.348;2023-02-28T08:32:18;3.67;;;1.97;;
17361;SDS011;8798;51.938;4.348;2023-02-28T08:34:55;4.07;;;2.10;;
17361;SDS011;8798;51.938;4.348;2023-02-28T08:37:25;3.87;;;2.57;;
17361;SDS011;8798;51.938;4.348;2023-02-28T08:39:53;5.10;;;2.53;;
17361;SDS011;8798;51.938;4.348;2023-02-28T08:42:22;6.83;;;2.57;;
17361;SDS011;8798;51.938;4.348;2023-02-28T08:44:50;4.17;;;2.80;;
17361;SDS011;8798;51.938;4.348;2023-02-28T08:47:18;4.20;;;2.60;;
17361;SDS011;8798;51.938;4.348;2023-02-28T08:49:46;3.90;;;2.40;;
17361;SDS011;8798;51.938;4.348;2023-02-28T08:52:14;3.63;;;2.67;;
17361;SDS011;8798;51.938;4.348;2023-02-28T08:54:43;4.10;;;2.87;;
17361;SDS011;8798;51.938;4.348;2023-02-28T08:57:10;5.63;;;2.90;;
17361;SDS011;8798;51.938;4.348;2023-02-28T08:59:38;5.57;;;2.80;;
17361;SDS011;8798;51.938;4.348;2023-02-28T09:02:08;3.63;;;2.77;;
17361;SDS011;8798;51.938;4.348;2023-02-28T09:04:36;4.83;;;2.60;;
17361;SDS011;8798;51.938;4.348;2023-02-28T09:07:04;5.80;;;2.70;;
17361;SDS011;8798;51.938;4.348;2023-02-28T09:09:31;3.67;;;2.27;;
17361;SDS011;8798;51.938;4.348;2023-02-28T09:12:01;4.80;;;2.77;;
17361;SDS011;8798;51.938;4.348;2023-02-28T09:14:28;4.73;;;2.40;;
17361;SDS011;8798;51.938;4.348;2023-02-28T09:16:57;3.50;;;2.43;;
17361;SDS011;8798;51.938;4.348;2023-02-28T09:19:25;3.43;;;2.10;;
17361;SDS011;8798;51.938;4.348;2023-02-28T09:21:53;3.57;;;2.13;;
17361;SDS011;8798;51.938;4.348;2023-02-28T09:24:21;4.33;;;2.77;;
17361;SDS011;8798;51.938;4.348;2023-02-28T09:26:48;3.70;;;2.70;;
17361;SDS011;8798;51.938;4.348;2023-02-28T09:29:31;4.30;;;2.80;;
17361;SDS011;8798;51.938;4.348;2023-02-28T09:31:59;4.30;;;2.47;;
17361;SDS011;8798;51.938;4.348;2023-02-28T09:34:27;3.43;;;2.37;;
17361;SDS011;8798;51.938;4.348;2023-02-28T09:36:57;5.67;;;2.67;;
17361;SDS011;8798;51.938;4.348;2023-02-28T09:39:25;4.87;;;2.60;;
17361;SDS011;8798;51.938;4.348;2023-02-28T09:41:55;5.20;;;2.80;;
17361;SDS011;8798;51.938;4.348;2023-02-28T09:44:26;2.77;;;2.17;;
17361;SDS011;8798;51.938;4.348;2023-02-28T09:47:00;5.63;;;2.37;;
17361;SDS011;8798;51.938;4.348;2023-02-28T09:49:34;4.47;;;1.87;;
17361;SDS011;8798;51.938;4.348;2023-02-28T09:52:09;4.80;;;2.33;;
17361;SDS011;8798;51.938;4.348;2023-02-28T09:54:39;3.20;;;2.20;;
17361;SDS011;8798;51.938;4.348;2023-02-28T09:57:08;2.33;;;1.70;;
17361;SDS011;8798;51.938;4.348;2023-02-28T09:59:44;4.10;;;1.90;;
17361;SDS011;8798;51.938;4.348;2023-02-28T10:05:24;3.00;;;2.20;;
17361;SDS011;8798;51.938;4.348;2023-02-28T10:07:58;2.60;;;1.97;;
17361;SDS011;8798;51.938;4.348;2023-02-28T10:10:33;4.87;;;2.27;;
17361;SDS011;8798;51.938;4.348;2023-02-28T10:13:07;3.70;;;2.40;;
17361;SDS011;8798;51.938;4.348;2023-02-28T10:15:44;5.07;;;2.57;;
17361;SDS011;8798;51.938;4.348;2023-02-28T10:18:19;3.50;;;2.10;;
17361;SDS011;8798;51.938;4.348;2023-02-28T10:20:51;3.47;;;2.40;;
17361;SDS011;8798;51.938;4.348;2023-02-28T10:23:24;3.03;;;2.10;;
17361;SDS011;8798;51.938;4.348;2023-02-28T10:25:57;3.30;;;2.30;;
17361;SDS011;8798;51.938;4.348;2023-02-28T10:28:29;4.37;;;2.30;;
17361;SDS011;8798;51.938;4.348;2023-02-28T10:30:58;5.07;;;2.07;;
17361;SDS011;8798;51.938;4.348;2023-02-28T10:33:29;1.77;;;1.50;;
17361;SDS011;8798;51.938;4.348;2023-02-28T10:36:00;2.47;;;1.60;;
17361;SDS011;8798;51.938;4.348;2023-02-28T10:38:33;2.33;;;1.60;;
17361;SDS011;8798;51.938;4.348;2023-02-28T10:41:06;2.90;;;1.43;;
17361;SDS011;8798;51.938;4.348;2023-02-28T10:43:35;2.20;;;1.30;;
17361;SDS011;8798;51.938;4.348;2023-02-28T10:46:05;2.87;;;1.70;;
17361;SDS011;8798;51.938;4.348;2023-02-28T10:48:44;2.27;;;1.50;;
17361;SDS011;8798;51.938;4.348;2023-02-28T10:51:15;2.13;;;1.50;;
17361;SDS011;8798;51.938;4.348;2023-02-28T10:53:46;6.20;;;1.63;;
17361;SDS011;8798;51.938;4.348;2023-02-28T10:56:27;2.90;;;1.43;;
17361;SDS011;8798;51.938;4.348;2023-02-28T10:58:57;2.90;;;1.60;;
17361;SDS011;8798;51.938;4.348;2023-02-28T11:01:34;2.53;;;1.30;;
17361;SDS011;8798;51.938;4.348;2023-02-28T11:04:11;2.33;;;1.60;;
17361;SDS011;8798;51.938;4.348;2023-02-28T11:06:45;3.40;;;1.40;;
17361;SDS011;8798;51.938;4.348;2023-02-28T11:09:17;3.30;;;1.53;;
17361;SDS011;8798;51.938;4.348;2023-02-28T11:11:50;2.70;;;1.80;;
17361;SDS011;8798;51.938;4.348;2023-02-28T11:14:19;2.67;;;1.60;;
17361;SDS011;8798;51.938;4.348;2023-02-28T11:16:49;2.60;;;1.47;;
17361;SDS011;8798;51.938;4.348;2023-02-28T11:19:20;2.30;;;1.57;;
17361;SDS011;8798;51.938;4.348;2023-02-28T11:21:53;2.17;;;1.60;;
17361;SDS011;8798;51.938;4.348;2023-02-28T11:24:24;2.53;;;1.40;;
17361;SDS011;8798;51.938;4.348;2023-02-28T11:26:55;1.90;;;1.47;;
17361;SDS011;8798;51.938;4.348;2023-02-28T11:29:24;2.53;;;1.70;;
17361;SDS011;8798;51.938;4.348;2023-02-28T11:32:00;1.57;;;1.33;;
17361;SDS011;8798;51.938;4.348;2023-02-28T11:34:32;3.70;;;1.67;;
17361;SDS011;8798;51.938;4.348;2023-02-28T11:37:00;4.40;;;1.67;;
17361;SDS011;8798;51.938;4.348;2023-02-28T11:39:31;2.13;;;1.70;;
17361;SDS011;8798;51.938;4.348;2023-02-28T11:42:12;2.63;;;1.60;;
17361;SDS011;8798;51.938;4.348;2023-02-28T11:44:58;3.10;;;1.70;;
17361;SDS011;8798;51.938;4.348;2023-02-28T11:47:36;2.57;;;1.57;;
17361;SDS011;8798;51.938;4.348;2023-02-28T11:50:16;3.83;;;1.73;;
17361;SDS011;8798;51.938;4.348;2023-02-28T11:52:53;1.67;;;1.40;;
17361;SDS011;8798;51.938;4.348;2023-02-28T11:55:24;3.67;;;2.00;;
17361;SDS011;8798;51.938;4.348;2023-02-28T11:58:05;1.97;;;1.57;;
17361;SDS011;8798;51.938;4.348;2023-02-28T12:00:52;2.07;;;1.77;;
17361;SDS011;8798;51.938;4.348;2023-02-28T12:03:31;2.93;;;1.50;;
17361;SDS011;8798;51.938;4.348;2023-02-28T12:06:16;2.20;;;1.40;;
17361;SDS011;8798;51.938;4.348;2023-02-28T12:08:53;2.07;;;1.33;;
17361;SDS011;8798;51.938;4.348;2023-02-28T12:11:33;1.97;;;1.20;;
17361;SDS011;8798;51.938;4.348;2023-02-28T12:14:19;2.60;;;1.43;;
17361;SDS011;8798;51.938;4.348;2023-02-28T12:17:00;4.10;;;1.20;;
17361;SDS011;8798;51.938;4.348;2023-02-28T12:19:37;1.47;;;1.30;;
17361;SDS011;8798;51.938;4.348;2023-02-28T12:22:25;1.80;;;1.30;;
17361;SDS011;8798;51.938;4.348;2023-02-28T12:25:08;2.40;;;1.33;;
17361;SDS011;8798;51.938;4.348;2023-02-28T12:27:58;1.90;;;1.37;;
17361;SDS011;8798;51.938;4.348;2023-02-28T12:30:28;2.50;;;1.23;;
17361;SDS011;8798;51.938;4.348;2023-02-28T12:33:01;1.30;;;1.20;;
17361;SDS011;8798;51.938;4.348;2023-02-28T12:35:33;1.70;;;1.20;;
17361;SDS011;8798;51.938;4.348;2023-02-28T12:38:08;1.63;;;1.37;;
17361;SDS011;8798;51.938;4.348;2023-02-28T12:40:42;2.23;;;1.43;;
17361;SDS011;8798;51.938;4.348;2023-02-28T12:43:12;1.30;;;1.20;;
17361;SDS011;8798;51.938;4.348;2023-02-28T12:45:43;2.50;;;1.53;;
17361;SDS011;8798;51.938;4.348;2023-02-28T12:48:18;2.10;;;1.40;;
17361;SDS011;8798;51.938;4.348;2023-02-28T12:50:51;1.77;;;1.40;;
17361;SDS011;8798;51.938;4.348;2023-02-28T12:53:23;2.47;;;1.50;;
17361;SDS011;8798;51.938;4.348;2023-02-28T12:55:57;1.60;;;1.33;;
17361;SDS011;8798;51.938;4.348;2023-02-28T12:58:38;2.00;;;1.37;;
17361;SDS011;8798;51.938;4.348;2023-02-28T13:01:13;3.00;;;1.87;;
17361;SDS011;8798;51.938;4.348;2023-02-28T13:04:03;4.83;;;1.80;;
17361;SDS011;8798;51.938;4.348;2023-02-28T13:06:52;2.50;;;1.50;;
17361;SDS011;8798;51.938;4.348;2023-02-28T13:09:34;1.87;;;1.43;;
17361;SDS011;8798;51.938;4.348;2023-02-28T13:12:04;2.60;;;1.40;;
17361;SDS011;8798;51.938;4.348;2023-02-28T13:14:40;1.67;;;1.43;;
17361;SDS011;8798;51.938;4.348;2023-02-28T13:17:11;2.20;;;1.53;;
17361;SDS011;8798;51.938;4.348;2023-02-28T13:19:45;1.40;;;1.30;;
17361;SDS011;8798;51.938;4.348;2023-02-28T13:22:36;1.53;;;1.27;;
17361;SDS011;8798;51.938;4.348;2023-02-28T13:35:14;1.77;;;1.20;;
17361;SDS011;8798;51.938;4.348;2023-02-28T13:38:09;1.83;;;1.33;;
17361;SDS011;8798;51.938;4.348;2023-02-28T13:40:44;1.80;;;1.33;;
17361;SDS011;8798;51.938;4.348;2023-02-28T13:43:12;2.60;;;1.50;;
17361;SDS011;8798;51.938;4.348;2023-02-28T13:46:10;1.43;;;1.13;;
17361;SDS011;8798;51.938;4.348;2023-02-28T13:48:41;2.37;;;1.50;;
17361;SDS011;8798;51.938;4.348;2023-02-28T13:54:07;2.57;;;1.57;;
17361;SDS011;8798;51.938;4.348;2023-02-28T13:56:48;2.47;;;1.30;;
17361;SDS011;8798;51.938;4.348;2023-02-28T13:59:26;1.67;;;1.30;;
17361;SDS011;8798;51.938;4.348;2023-02-28T14:02:03;2.13;;;1.40;;
17361;SDS011;8798;51.938;4.348;2023-02-28T14:05:05;2.17;;;1.60;;
17361;SDS011;8798;51.938;4.348;2023-02-28T14:07:36;1.73;;;1.40;;
17361;SDS011;8798;51.938;4.348;2023-02-28T14:10:15;2.37;;;1.53;;
17361;SDS011;8798;51.938;4.348;2023-02-28T14:12:54;2.23;;;1.57;;
17361;SDS011;8798;51.938;4.348;2023-02-28T14:15:30;2.87;;;1.60;;
17361;SDS011;8798;51.938;4.348;2023-02-28T14:18:15;2.57;;;1.30;;
17361;SDS011;8798;51.938;4.348;2023-02-28T14:20:54;2.27;;;1.53;;
17361;SDS011;8798;51.938;4.348;2023-02-28T14:23:36;2.13;;;1.47;;
17361;SDS011;8798;51.938;4.348;2023-02-28T14:26:18;2.20;;;1.50;;
17361;SDS011;8798;51.938;4.348;2023-02-28T14:29:01;1.57;;;1.43;;
17361;SDS011;8798;51.938;4.348;2023-02-28T14:31:45;2.80;;;1.70;;
17361;SDS011;8798;51.938;4.348;2023-02-28T14:34:25;2.63;;;1.50;;
17361;SDS011;8798;51.938;4.348;2023-02-28T14:37:03;1.70;;;1.20;;
17361;SDS011;8798;51.938;4.348;2023-02-28T14:39:34;2.70;;;1.60;;
17361;SDS011;8798;51.938;4.348;2023-02-28T14:42:03;2.60;;;1.80;;
17361;SDS011;8798;51.938;4.348;2023-02-28T14:44:31;2.70;;;1.33;;
17361;SDS011;8798;51.938;4.348;2023-02-28T14:47:00;5.20;;;1.40;;
17361;SDS011;8798;51.938;4.348;2023-02-28T14:49:31;2.53;;;1.43;;
17361;SDS011;8798;51.938;4.348;2023-02-28T14:52:05;2.40;;;1.40;;
17361;SDS011;8798;51.938;4.348;2023-02-28T14:54:36;1.27;;;1.17;;
17361;SDS011;8798;51.938;4.348;2023-02-28T14:57:04;2.30;;;1.70;;
17361;SDS011;8798;51.938;4.348;2023-02-28T14:59:33;1.83;;;1.47;;
17361;SDS011;8798;51.938;4.348;2023-02-28T15:02:16;1.70;;;1.50;;
17361;SDS011;8798;51.938;4.348;2023-02-28T15:04:55;1.80;;;1.50;;
17361;SDS011;8798;51.938;4.348;2023-02-28T15:07:25;3.67;;;1.40;;
17361;SDS011;8798;51.938;4.348;2023-02-28T15:10:06;3.03;;;1.40;;
17361;SDS011;8798;51.938;4.348;2023-02-28T15:12:46;2.23;;;1.50;;
17361;SDS011;8798;51.938;4.348;2023-02-28T15:15:19;2.20;;;1.30;;
17361;SDS011;8798;51.938;4.348;2023-02-28T15:18:05;2.43;;;1.40;;
17361;SDS011;8798;51.938;4.348;2023-02-28T15:20:35;2.57;;;1.27;;
17361;SDS011;8798;51.938;4.348;2023-02-28T15:23:07;1.80;;;1.30;;
17361;SDS011;8798;51.938;4.348;2023-02-28T15:25:36;1.70;;;1.20;;
17361;SDS011;8798;51.938;4.348;2023-02-28T15:28:04;2.37;;;1.60;;
17361;SDS011;8798;51.938;4.348;2023-02-28T15:30:32;2.33;;;1.37;;
17361;SDS011;8798;51.938;4.348;2023-02-28T15:33:07;2.40;;;1.50;;
17361;SDS011;8798;51.938;4.348;2023-02-28T15:35:47;1.30;;;1.10;;
17361;SDS011;8798;51.938;4.348;2023-02-28T15:38:18;2.20;;;1.23;;
17361;SDS011;8798;51.938;4.348;2023-02-28T15:40:50;2.57;;;1.30;;
17361;SDS011;8798;51.938;4.348;2023-02-28T15:43:23;2.40;;;1.37;;
17361;SDS011;8798;51.938;4.348;2023-02-28T15:45:55;1.40;;;1.10;;
17361;SDS011;8798;51.938;4.348;2023-02-28T15:48:26;2.30;;;1.20;;
17361;SDS011;8798;51.938;4.348;2023-02-28T15:50:56;1.60;;;1.30;;
17361;SDS011;8798;51.938;4.348;2023-02-28T15:53:31;1.53;;;1.13;;